Time;durP1;ratioP1;P1;durP2;ratioP2;P2;SDS_P1;SDS_P2;PMS_P1;PMS_P2;Temp;Humidity;BMP_temperature;BMP_pressure;BME280_temperature;BME280_humidity;BME280_pressure;Samples;Min_cycle;Max_cycle;Signal;HPM_P1;HPM_P2
2022/03/16 00:01:34;;;;;;;8.30;2.22;;;;;;;9.94;100.00;100052.53;7396986;19;20025;-81
2022/03/16 00:04:00;;;;;;;7.32;1.80;;;;;;;9.89;100.00;100063.53;7393298;19;20018;-81
2022/03/16 00:06:25;;;;;;;1.02;0.88;;;;;;;9.84;100.00;100058.59;7394632;19;20025;-81
2022/03/16 00:08:52;;;;;;;5.80;1.70;;;;;;;9.86;100.00;100064.47;7395756;19;20019;-81
2022/03/16 00:11:18;;;;;;;4.40;1.67;;;;;;;9.88;100.00;100059.97;7397942;19;20097;-81
2022/03/16 00:13:43;;;;;;;2.78;1.98;;;;;;;9.86;100.00;100059.69;7392927;19;20011;-80
2022/03/16 00:16:09;;;;;;;1.85;1.35;;;;;;;9.94;100.00;100062.91;7392722;19;20025;-80
2022/03/16 00:18:35;;;;;;;0.40;0.40;;;;;;;9.98;100.00;100052.41;7390567;19;20029;-81
2022/03/16 00:21:00;;;;;;;6.03;1.63;;;;;;;10.00;100.00;100054.72;7394358;19;20022;-80
2022/03/16 00:23:26;;;;;;;2.40;1.60;;;;;;;9.91;100.00;100049.94;7392806;19;20035;-81
2022/03/16 00:25:52;;;;;;;5.72;1.55;;;;;;;9.91;100.00;100047.94;7391152;19;20023;-81
2022/03/16 00:28:18;;;;;;;1.25;1.15;;;;;;;9.88;100.00;100059.19;7394234;19;20133;-80
2022/03/16 00:30:44;;;;;;;10.68;2.50;;;;;;;9.86;100.00;100064.47;7395602;19;20103;-80
2022/03/16 00:33:13;;;;;;;8.40;2.90;;;;;;;9.85;100.00;100065.72;7392087;19;20354;-80
2022/03/16 00:35:39;;;;;;;3.83;1.30;;;;;;;9.90;100.00;100067.84;7391727;19;20042;-80
2022/03/16 00:38:04;;;;;;;1.15;1.05;;;;;;;9.93;100.00;100072.50;7391718;19;20014;-81
2022/03/16 00:40:32;;;;;;;9.05;1.95;;;;;;;9.90;100.00;100070.63;7394698;19;20501;-81
2022/03/16 00:42:58;;;;;;;7.53;2.70;;;;;;;9.85;100.00;100083.16;7394935;19;20027;-81
2022/03/16 00:45:24;;;;;;;2.88;1.10;;;;;;;9.80;100.00;100074.66;7394095;19;20477;-81
2022/03/16 00:47:52;;;;;;;5.70;1.25;;;;;;;9.77;100.00;100072.81;7392299;19;20015;-81
2022/03/16 00:50:17;;;;;;;8.10;2.92;;;;;;;9.74;100.00;100073.75;7393935;19;20027;-81
2022/03/16 00:52:43;;;;;;;13.68;3.25;;;;;;;9.69;100.00;100071.59;7394684;19;20023;-80
2022/03/16 00:55:08;;;;;;;2.08;1.58;;;;;;;9.64;100.00;100072.19;7390975;19;20022;-81
2022/03/16 00:57:34;;;;;;;2.67;1.58;;;;;;;9.48;100.00;100069.75;7390325;19;20022;-81
2022/03/16 01:00:01;;;;;;;2.67;1.20;;;;;;;9.37;100.00;100069.41;7390952;19;20027;-80
2022/03/16 01:02:26;;;;;;;2.75;1.92;;;;;;;9.34;100.00;100065.56;7394216;19;20018;-80
2022/03/16 01:04:53;;;;;;;9.30;1.83;;;;;;;9.31;100.00;100060.94;7393359;19;20026;-82
2022/03/16 01:07:18;;;;;;;1.65;1.52;;;;;;;9.29;100.00;100052.25;7389199;19;20477;-82
2022/03/16 01:09:44;;;;;;;4.00;1.23;;;;;;;9.29;100.00;100041.16;7391534;19;20025;-81
2022/03/16 01:12:10;;;;;;;5.13;1.90;;;;;;;9.22;100.00;100035.13;7393458;19;20058;-80
2022/03/16 01:14:36;;;;;;;4.57;1.50;;;;;;;9.23;100.00;100020.00;7395809;19;20502;-80
2022/03/16 01:17:01;;;;;;;3.85;1.98;;;;;;;9.22;100.00;100029.56;7391312;19;20014;-81
2022/03/16 01:19:29;;;;;;;1.65;1.38;;;;;;;9.26;100.00;100027.41;7391363;19;20023;-81
2022/03/16 01:21:55;;;;;;;3.72;1.83;;;;;;;9.26;100.00;100025.41;7395163;19;20006;-82
2022/03/16 01:24:21;;;;;;;21.75;3.22;;;;;;;9.25;100.00;100034.22;7391998;19;20019;-81
2022/03/16 01:26:47;;;;;;;5.38;2.80;;;;;;;9.26;100.00;100027.41;7391549;19;20019;-83
2022/03/16 01:29:13;;;;;;;8.48;1.55;;;;;;;9.26;100.00;100035.75;7390994;19;20015;-83
2022/03/16 01:31:38;;;;;;;2.83;1.98;;;;;;;9.29;100.00;100034.84;7397045;19;20019;-81
2022/03/16 01:34:04;;;;;;;2.45;1.58;;;;;;;9.27;100.00;100031.75;7394083;19;20031;-80
2022/03/16 01:36:30;;;;;;;3.20;1.30;;;;;;;9.30;100.00;100028.03;7392030;19;20386;-80
2022/03/16 01:38:56;;;;;;;13.23;2.22;;;;;;;9.29;100.00;100023.72;7392394;19;20039;-80
2022/03/16 01:41:22;;;;;;;1.52;1.38;;;;;;;9.25;100.00;100034.97;7395850;19;20611;-82
2022/03/16 01:43:52;;;;;;;2.20;1.77;;;;;;;9.25;100.00;100025.88;7393770;19;20048;-82
2022/03/16 01:46:20;;;;;;;6.25;1.58;;;;;;;9.23;100.00;100031.09;7390814;19;20018;-84
2022/03/16 01:48:46;;;;;;;9.40;2.55;;;;;;;9.20;100.00;100034.81;7391624;19;20135;-83
2022/03/16 01:51:13;;;;;;;2.25;1.27;;;;;;;9.17;100.00;100030.97;7392327;19;20019;-85
2022/03/16 01:53:41;;;;;;;3.42;1.85;;;;;;;9.20;100.00;100029.28;7392702;19;20081;-84
2022/03/16 01:56:09;;;;;;;5.45;2.33;;;;;;;9.14;100.00;100018.75;7394368;19;20322;-84
2022/03/16 01:58:35;;;;;;;3.28;1.38;;;;;;;9.11;100.00;100021.69;7390596;19;20416;-84
2022/03/16 02:01:01;;;;;;;5.03;2.33;;;;;;;9.07;100.00;100024.59;7393233;19;20120;-84
2022/03/16 02:03:27;;;;;;;2.63;2.08;;;;;;;9.04;100.00;100022.00;7390267;19;20029;-84
2022/03/16 02:05:52;;;;;;;4.03;1.75;;;;;;;9.04;100.00;100025.53;7387949;19;20049;-83
2022/03/16 02:08:18;;;;;;;5.30;2.20;;;;;;;9.05;100.00;100024.28;7395483;19;20015;-84
2022/03/16 02:10:44;;;;;;;26.65;3.88;;;;;;;9.06;100.00;100023.06;7393915;19;20014;-85
2022/03/16 02:13:10;;;;;;;7.80;2.65;;;;;;;9.10;100.00;100018.13;7392279;19;20306;-83
2022/03/16 02:15:36;;;;;;;5.93;2.38;;;;;;;9.03;100.00;100018.44;7391602;19;20030;-84
2022/03/16 02:18:02;;;;;;;7.78;1.50;;;;;;;9.02;100.00;100014.13;7391947;19;20015;-84
2022/03/16 02:20:28;;;;;;;4.53;2.65;;;;;;;9.05;100.00;100010.41;7394511;19;20010;-84
2022/03/16 02:23:07;;;;;;;3.55;2.47;;;;;;;9.04;100.00;100008.09;7391095;19;20015;-83
2022/03/16 02:25:49;;;;;;;3.90;1.73;;;;;;;9.00;100.00;100008.25;7391546;19;20363;-83
2022/03/16 02:28:15;;;;;;;3.28;1.65;;;;;;;8.94;100.00;100004.53;7391229;19;20021;-83
2022/03/16 02:30:40;;;;;;;6.88;1.60;;;;;;;8.88;100.00;100006.38;7392549;19;20094;-83
2022/03/16 02:33:06;;;;;;;8.63;2.28;;;;;;;8.91;100.00;100005.47;7391065;19;20513;-84
2022/03/16 02:35:32;;;;;;;9.52;3.55;;;;;;;8.92;100.00;100001.44;7390700;19;20014;-84
2022/03/16 02:38:00;;;;;;;3.70;2.10;;;;;;;8.96;100.00;100002.09;7390869;19;20020;-84
2022/03/16 02:40:26;;;;;;;6.80;2.13;;;;;;;8.94;100.00;99998.97;7392266;19;20029;-83
2022/03/16 02:42:52;;;;;;;7.50;3.05;;;;;;;8.92;100.00;100000.69;7388669;19;20477;-84
2022/03/16 02:45:18;;;;;;;3.10;1.52;;;;;;;8.90;100.00;100006.69;7393004;19;20548;-84
2022/03/16 02:47:44;;;;;;;9.10;1.88;;;;;;;8.93;100.00;100014.09;7391410;19;20355;-84
2022/03/16 02:50:16;;;;;;;2.03;1.88;;;;;;;8.90;100.00;100012.25;7391472;19;20481;-84
2022/03/16 02:52:43;;;;;;;5.00;2.65;;;;;;;8.97;100.00;100009.16;7391272;19;20014;-84
2022/03/16 02:55:09;;;;;;;2.20;1.60;;;;;;;8.99;100.00;99994.81;7388944;19;20022;-83
2022/03/16 02:57:36;;;;;;;4.60;1.98;;;;;;;8.99;100.00;100006.69;7389563;19;20014;-84
2022/03/16 03:00:04;;;;;;;6.13;2.63;;;;;;;9.04;100.00;99992.22;7387474;19;20009;-84
2022/03/16 03:02:29;;;;;;;11.13;2.75;;;;;;;9.04;100.00;99997.00;7390919;19;20031;-84
2022/03/16 03:04:55;;;;;;;8.65;2.50;;;;;;;8.98;100.00;99988.50;7389906;19;20006;-84
2022/03/16 03:07:20;;;;;;;15.70;2.75;;;;;;;8.96;100.00;99996.53;7388951;19;20015;-83
2022/03/16 03:09:46;;;;;;;1.73;1.60;;;;;;;9.00;100.00;99996.38;7389406;19;20014;-84
2022/03/16 03:12:11;;;;;;;4.90;2.45;;;;;;;9.01;100.00;100001.47;7393789;19;20489;-83
2022/03/16 03:14:37;;;;;;;3.15;1.73;;;;;;;9.00;100.00;100002.72;7390442;19;20516;-83
2022/03/16 03:17:03;;;;;;;2.70;2.10;;;;;;;9.02;100.00;100011.34;7386657;19;20090;-83
2022/03/16 03:19:28;;;;;;;5.22;2.65;;;;;;;8.97;100.00;99995.28;7386828;19;20338;-83
2022/03/16 03:21:54;;;;;;;5.55;1.08;;;;;;;8.87;100.00;99993.75;7391976;19;20032;-84
2022/03/16 03:24:20;;;;;;;3.30;1.88;;;;;;;8.85;100.00;99985.09;7387856;19;20025;-84
2022/03/16 03:26:45;;;;;;;1.63;1.30;;;;;;;8.97;100.00;99986.16;7389717;19;20014;-83
2022/03/16 03:29:11;;;;;;;2.17;1.95;;;;;;;8.94;100.00;99992.66;7390347;19;20015;-84
2022/03/16 03:31:37;;;;;;;4.85;2.97;;;;;;;8.94;100.00;99998.22;7397480;19;20011;-84
2022/03/16 03:34:03;;;;;;;6.00;2.47;;;;;;;8.97;100.00;99992.50;7397834;19;20023;-84
2022/03/16 03:36:29;;;;;;;6.15;2.45;;;;;;;8.99;100.00;99987.25;7397075;19;20022;-83
2022/03/16 03:38:55;;;;;;;7.30;2.65;;;;;;;9.00;100.00;99986.03;7392740;19;20035;-83
2022/03/16 03:41:20;;;;;;;12.70;2.40;;;;;;;8.99;100.00;99984.47;7396592;19;20015;-84
2022/03/16 03:43:46;;;;;;;6.68;3.13;;;;;;;9.01;100.00;99975.69;7393334;19;20015;-83
2022/03/16 03:46:11;;;;;;;22.85;3.35;;;;;;;9.02;100.00;99977.25;7392907;19;20422;-83
2022/03/16 03:48:37;;;;;;;5.13;2.92;;;;;;;9.01;100.00;99984.78;7396993;19;20007;-84
2022/03/16 03:51:02;;;;;;;7.20;2.70;;;;;;;9.08;100.00;99989.28;7399235;19;20035;-83
2022/03/16 03:53:28;;;;;;;4.30;2.25;;;;;;;9.10;100.00;99978.47;7396716;19;20022;-83
2022/03/16 03:55:53;;;;;;;3.95;1.20;;;;;;;9.16;100.00;99980.16;7393409;19;20033;-84
2022/03/16 03:58:19;;;;;;;2.13;1.58;;;;;;;9.14;100.00;99979.88;7395543;19;20015;-84
2022/03/16 04:00:44;;;;;;;3.63;1.77;;;;;;;9.15;100.00;99988.97;7399140;19;20033;-83
2022/03/16 04:03:10;;;;;;;1.92;1.75;;;;;;;9.17;100.00;99983.72;7396204;19;20358;-84
2022/03/16 04:05:36;;;;;;;5.22;2.35;;;;;;;9.13;100.00;99980.34;7397347;19;20477;-84
2022/03/16 04:08:01;;;;;;;9.02;2.55;;;;;;;9.09;100.00;99977.72;7395845;19;20377;-83
2022/03/16 04:10:27;;;;;;;6.28;2.70;;;;;;;9.05;100.00;99982.63;7397948;19;20014;-84
2022/03/16 04:12:52;;;;;;;1.30;1.23;;;;;;;9.03;100.00;99985.09;7394963;19;20019;-84
2022/03/16 04:15:20;;;;;;;6.72;3.35;;;;;;;9.08;100.00;99970.59;7397525;19;20023;-83
2022/03/16 04:17:46;;;;;;;4.32;2.05;;;;;;;9.06;100.00;99975.84;7394199;19;20481;-84
2022/03/16 04:20:12;;;;;;;5.57;1.42;;;;;;;9.05;100.00;99979.84;7396527;19;20447;-84
2022/03/16 04:22:38;;;;;;;7.25;1.92;;;;;;;8.99;100.00;99978.16;7395156;19;20477;-84
2022/03/16 04:25:04;;;;;;;8.23;2.47;;;;;;;8.87;100.00;99985.41;7396722;19;20011;-83
2022/03/16 04:27:30;;;;;;;2.53;2.05;;;;;;;8.81;100.00;99978.91;7394407;19;20029;-83
2022/03/16 04:29:56;;;;;;;5.50;3.00;;;;;;;8.74;100.00;99976.44;7392250;19;20014;-83
2022/03/16 04:32:21;;;;;;;2.53;1.98;;;;;;;8.72;100.00;99989.22;7398589;19;20019;-83
2022/03/16 04:34:47;;;;;;;3.95;1.48;;;;;;;8.65;100.00;99993.06;7394706;19;20019;-83
2022/03/16 04:37:13;;;;;;;7.55;1.65;;;;;;;8.61;100.00;99992.44;7393710;19;20354;-83
2022/03/16 04:39:38;;;;;;;6.13;3.35;;;;;;;8.61;100.00;100006.31;7394338;19;20006;-83
2022/03/16 04:42:05;;;;;;;5.93;2.58;;;;;;;8.59;100.00;100008.78;7394973;19;20025;-83
2022/03/16 04:44:30;;;;;;;7.35;1.77;;;;;;;8.62;100.00;100018.97;7392020;19;20019;-83
2022/03/16 04:46:56;;;;;;;2.47;2.28;;;;;;;8.67;100.00;100012.81;7391991;19;20086;-83
2022/03/16 04:49:21;;;;;;;3.05;1.45;;;;;;;8.74;100.00;100014.53;7392003;19;20043;-83
2022/03/16 04:51:47;;;;;;;4.03;2.30;;;;;;;8.77;100.00;100027.50;7399069;19;20010;-84
2022/03/16 04:54:14;;;;;;;6.25;2.90;;;;;;;8.85;100.00;100028.75;7397815;19;20353;-84
2022/03/16 04:56:40;;;;;;;7.10;3.58;;;;;;;8.91;100.00;100024.13;7394272;19;20034;-84
2022/03/16 04:59:06;;;;;;;5.47;2.80;;;;;;;8.99;100.00;100023.38;7393699;19;20014;-83
2022/03/16 05:01:32;;;;;;;7.85;3.70;;;;;;;8.97;100.00;100025.06;7396997;19;20413;-83
2022/03/16 05:03:57;;;;;;;3.75;1.45;;;;;;;9.01;100.00;100020.13;7392221;19;20342;-83
2022/03/16 05:06:23;;;;;;;4.63;1.60;;;;;;;8.98;100.00;100016.28;7391868;19;20086;-84
2022/03/16 05:08:50;;;;;;;3.65;1.75;;;;;;;8.98;100.00;100016.28;7393162;19;20042;-84
2022/03/16 05:11:16;;;;;;;5.93;2.92;;;;;;;9.01;100.00;100023.69;7396607;19;20476;-83
2022/03/16 05:13:42;;;;;;;2.88;2.63;;;;;;;9.04;100.00;100020.00;7393637;19;20077;-84
2022/03/16 05:16:08;;;;;;;2.78;2.17;;;;;;;9.08;100.00;100020.59;7393754;19;20048;-84
2022/03/16 05:18:34;;;;;;;7.47;3.13;;;;;;;9.06;100.00;100019.53;7391706;19;20019;-83
2022/03/16 05:21:03;;;;;;;2.80;1.63;;;;;;;9.07;100.00;100021.84;7393271;19;20074;-84
2022/03/16 05:23:29;;;;;;;10.52;3.05;;;;;;;9.09;100.00;100016.63;7390168;19;20390;-84
2022/03/16 05:25:56;;;;;;;12.57;3.88;;;;;;;9.10;100.00;100012.59;7389681;19;20035;-83
2022/03/16 05:28:21;;;;;;;15.07;3.72;;;;;;;9.20;100.00;100015.38;7393698;19;20015;-84
2022/03/16 05:30:47;;;;;;;11.02;2.47;;;;;;;9.21;100.00;100003.00;7394641;19;20054;-83
2022/03/16 05:33:14;;;;;;;6.20;2.25;;;;;;;9.19;100.00;100009.03;7393764;19;20020;-84
2022/03/16 05:35:41;;;;;;;1.98;1.25;;;;;;;9.16;100.00;100009.94;7391820;19;20032;-83
2022/03/16 05:38:08;;;;;;;5.55;2.80;;;;;;;9.15;100.00;100025.88;7390734;19;20035;-84
2022/03/16 05:40:34;;;;;;;4.63;2.28;;;;;;;9.16;100.00;100032.97;7393266;19;20022;-83
2022/03/16 05:43:00;;;;;;;11.43;3.33;;;;;;;9.16;100.00;100012.72;7390907;19;20022;-85
2022/03/16 05:45:26;;;;;;;3.75;2.53;;;;;;;9.18;100.00;100013.06;7392687;19;20019;-84
2022/03/16 05:47:51;;;;;;;5.22;3.17;;;;;;;9.18;100.00;100021.41;7394090;19;20098;-84
2022/03/16 05:50:17;;;;;;;6.53;2.83;;;;;;;9.19;100.00;100014.59;7392011;19;20018;-85
2022/03/16 05:52:43;;;;;;;4.88;2.00;;;;;;;9.24;100.00;100010.44;7392122;19;20014;-84
2022/03/16 05:55:10;;;;;;;6.63;2.85;;;;;;;9.26;100.00;100008.75;7391430;19;20006;-84
2022/03/16 05:57:39;;;;;;;10.55;3.60;;;;;;;9.13;100.00;100011.66;7391317;19;20034;-84
2022/03/16 06:00:07;;;;;;;10.52;4.30;;;;;;;9.13;100.00;100011.66;7390941;19;20026;-84
2022/03/16 06:02:33;;;;;;;4.43;3.00;;;;;;;9.16;100.00;100007.94;7392612;19;20015;-84
2022/03/16 06:04:58;;;;;;;8.13;3.58;;;;;;;9.31;100.00;100007.34;7392513;19;20400;-84
2022/03/16 06:07:24;;;;;;;4.93;3.05;;;;;;;9.30;100.00;100005.78;7391058;19;20456;-84
2022/03/16 06:09:49;;;;;;;6.72;3.53;;;;;;;9.35;100.00;100005.19;7392020;19;20022;-85
2022/03/16 06:12:15;;;;;;;11.65;4.18;;;;;;;9.43;100.00;100017.53;7393016;19;20027;-84
2022/03/16 06:14:40;;;;;;;5.15;2.28;;;;;;;9.44;100.00;100005.19;7392789;19;20018;-84
2022/03/16 06:17:06;;;;;;;14.77;3.85;;;;;;;9.45;100.00;100003.94;7391536;19;20030;-81
2022/03/16 06:19:31;;;;;;;5.13;2.40;;;;;;;9.45;100.00;100004.72;7386203;19;20394;-82
2022/03/16 06:21:57;;;;;;;6.15;3.88;;;;;;;9.48;100.00;100008.59;7393238;19;20018;-83
2022/03/16 06:24:22;;;;;;;11.02;4.65;;;;;;;9.54;100.00;100009.50;7389758;19;20485;-82
2022/03/16 06:26:48;;;;;;;5.05;3.30;;;;;;;9.55;100.00;100019.41;7389428;19;20031;-82
2022/03/16 06:29:13;;;;;;;8.38;3.22;;;;;;;9.59;100.00;100014.44;7390970;19;20015;-83
2022/03/16 06:31:39;;;;;;;12.73;5.65;;;;;;;9.66;100.00;100020.44;7395783;19;20007;-82
2022/03/16 06:34:04;;;;;;;20.80;5.38;;;;;;;9.76;100.00;100018.44;7390399;19;20485;-82
2022/03/16 06:36:30;;;;;;;13.90;4.55;;;;;;;9.81;100.00;100031.72;7387088;19;20023;-82
2022/03/16 06:38:56;;;;;;;26.05;5.57;;;;;;;9.83;100.00;100029.25;7391193;19;20017;-81
2022/03/16 06:41:22;;;;;;;19.23;5.68;;;;;;;9.91;100.00;100031.25;7393522;19;20070;-81
2022/03/16 06:43:48;;;;;;;22.83;5.28;;;;;;;10.03;100.00;100037.84;7388423;19;20015;-81
2022/03/16 06:46:14;;;;;;;14.85;4.63;;;;;;;10.09;100.00;100038.00;7389125;19;20026;-81
2022/03/16 06:48:40;;;;;;;13.60;5.75;;;;;;;10.21;100.00;100040.63;7390671;19;20043;-81
2022/03/16 06:51:06;;;;;;;13.82;4.25;;;;;;;10.33;100.00;100034.06;7393966;19;20017;-82
2022/03/16 06:53:32;;;;;;;12.57;5.72;;;;;;;10.29;100.00;100033.47;7390298;19;20411;-81
2022/03/16 06:55:58;;;;;;;13.40;5.07;;;;;;;10.35;100.00;100026.03;7389687;19;20026;-81
2022/03/16 06:58:23;;;;;;;9.40;4.68;;;;;;;10.48;100.00;100040.50;7387366;19;20025;-82
2022/03/16 07:00:49;;;;;;;22.45;6.60;;;;;;;10.57;100.00;100039.69;7393255;19;20015;-81
2022/03/16 07:03:14;;;;;;;12.00;4.47;;;;;;;10.60;100.00;100041.56;7389785;19;20061;-81
2022/03/16 07:05:41;;;;;;;12.13;5.63;;;;;;;10.71;100.00;100041.03;7390088;19;20018;-81
2022/03/16 07:08:10;;;;;;;14.27;4.95;;;;;;;10.84;100.00;100047.94;7395872;19;20015;-81
2022/03/16 07:10:39;;;;;;;9.63;3.50;;;;;;;10.90;100.00;100043.25;7393127;19;20011;-81
2022/03/16 07:13:05;;;;;;;10.63;3.88;;;;;;;10.98;100.00;100050.00;7391463;19;20014;-81
2022/03/16 07:15:32;;;;;;;13.82;6.00;;;;;;;11.01;100.00;100060.22;7386487;19;20022;-81
2022/03/16 07:17:58;;;;;;;13.48;2.97;;;;;;;11.12;100.00;100056.91;7387675;19;20025;-81
2022/03/16 07:20:24;;;;;;;16.60;4.20;;;;;;;11.20;100.00;100050.50;7391721;19;20109;-81
2022/03/16 07:23:09;;;;;;;14.10;4.35;;;;;;;11.25;100.00;100051.84;7390687;19;20023;-82
2022/03/16 07:25:43;;;;;;;10.85;5.45;;;;;;;11.29;100.00;100058.03;7390255;19;20011;-82
2022/03/16 07:28:09;;;;;;;16.67;5.07;;;;;;;11.28;100.00;100050.91;7392536;19;20015;-82
2022/03/16 07:30:37;;;;;;;21.58;5.03;;;;;;;11.28;100.00;100045.34;7390551;19;20078;-81
2022/03/16 07:33:03;;;;;;;14.38;3.13;;;;;;;11.33;100.00;100047.44;7387754;19;20021;-81
2022/03/16 07:35:29;;;;;;;18.80;3.70;;;;;;;11.30;100.00;100043.59;7390698;19;20481;-82
2022/03/16 07:37:56;;;;;;;10.65;4.63;;;;;;;11.31;100.00;100047.94;7388079;19;20025;-81
2022/03/16 07:40:23;;;;;;;20.67;4.78;;;;;;;11.32;100.00;100051.50;7389887;19;20022;-81
2022/03/16 07:42:50;;;;;;;12.68;4.70;;;;;;;11.37;100.00;100039.69;7389304;19;20014;-81
2022/03/16 07:45:18;;;;;;;8.27;5.75;;;;;;;11.43;100.00;100048.94;7390459;19;20022;-82
2022/03/16 07:47:48;;;;;;;7.10;2.67;;;;;;;11.41;100.00;100049.41;7390487;19;20070;-81
2022/03/16 07:50:15;;;;;;;17.05;5.35;;;;;;;11.46;100.00;100039.59;7386803;19;20018;-82
2022/03/16 07:52:41;;;;;;;13.93;4.30;;;;;;;11.58;100.00;100043.41;7392279;19;20018;-81
2022/03/16 07:55:08;;;;;;;25.52;5.18;;;;;;;11.62;100.00;100039.19;7392762;19;20039;-80
2022/03/16 07:57:35;;;;;;;18.55;4.55;;;;;;;11.65;100.00;100052.16;7389693;19;20018;-81
2022/03/16 08:00:02;;;;;;;11.18;4.35;;;;;;;11.68;100.00;100056.81;7393284;19;20086;-82
2022/03/16 08:02:29;;;;;;;17.58;4.78;;;;;;;11.76;100.00;100069.13;7390957;19;20018;-81
2022/03/16 08:04:57;;;;;;;13.43;4.47;;;;;;;11.56;100.00;100065.41;7390906;19;20017;-80
2022/03/16 08:07:26;;;;;;;14.40;4.72;;;;;;;11.49;100.00;100077.72;7393220;19;20034;-80
2022/03/16 08:09:51;;;;;;;11.25;4.60;;;;;;;11.52;100.00;100073.94;7391716;19;20473;-81
2022/03/16 08:12:17;;;;;;;13.57;5.07;;;;;;;11.48;100.00;100075.41;7391606;19;20018;-82
2022/03/16 08:14:42;;;;;;;5.85;4.40;;;;;;;11.43;100.00;100066.44;7393296;19;20043;-83
2022/03/16 08:17:08;;;;;;;16.20;4.80;;;;;;;11.76;100.00;100057.97;7392285;19;20007;-84
2022/03/16 08:19:33;;;;;;;11.15;3.78;;;;;;;11.91;100.00;100069.94;7398998;19;20504;-85
2022/03/16 08:21:59;;;;;;;10.23;4.00;;;;;;;11.97;100.00;100068.03;7398753;19;20014;-83
2022/03/16 08:24:25;;;;;;;13.32;4.57;;;;;;;12.02;100.00;100064.56;7394488;19;20021;-82
2022/03/16 08:26:53;;;;;;;17.15;4.88;;;;;;;11.99;100.00;100071.13;7392982;19;20087;-83
2022/03/16 08:29:19;;;;;;;15.18;6.22;;;;;;;12.07;100.00;100065.91;7397480;19;20014;-80
2022/03/16 08:31:45;;;;;;;8.93;5.47;;;;;;;12.05;100.00;100069.19;7398486;19;20044;-81
2022/03/16 08:34:10;;;;;;;13.00;4.40;;;;;;;11.99;100.00;100076.69;7397067;19;20014;-82
2022/03/16 08:36:38;;;;;;;18.77;5.07;;;;;;;11.96;100.00;100071.28;7396670;19;20126;-84
2022/03/16 08:39:04;;;;;;;15.45;5.60;;;;;;;11.93;100.00;100086.97;7395769;19;20018;-85
2022/03/16 08:41:32;;;;;;;13.95;4.32;;;;;;;11.91;100.00;100086.66;7395815;19;20048;-85
2022/03/16 08:43:58;;;;;;;14.27;4.97;;;;;;;11.96;100.00;100088.03;7392678;19;20018;-85
2022/03/16 08:46:24;;;;;;;16.67;4.50;;;;;;;11.96;100.00;100082.44;7392360;19;20029;-85
2022/03/16 08:48:49;;;;;;;9.10;4.05;;;;;;;11.95;100.00;100084.47;7394532;19;20014;-85
2022/03/16 08:51:15;;;;;;;14.95;4.70;;;;;;;11.92;100.00;100077.06;7396980;19;20041;-85
2022/03/16 08:53:40;;;;;;;7.30;4.10;;;;;;;11.95;100.00;100081.66;7396421;19;20350;-84
2022/03/16 08:56:06;;;;;;;14.23;3.10;;;;;;;12.07;100.00;100083.44;7394621;19;20022;-86
2022/03/16 08:58:33;;;;;;;12.15;5.47;;;;;;;12.01;100.00;100085.34;7393252;19;20026;-89
2022/03/16 09:00:58;;;;;;;10.15;5.07;;;;;;;11.98;100.00;100086.31;7398312;19;20052;-89
2022/03/16 09:03:24;;;;;;;13.70;4.18;;;;;;;11.93;100.00;100069.47;7397831;19;20018;-88
2022/03/16 09:05:50;;;;;;;13.13;3.55;;;;;;;12.01;100.00;100076.22;7393835;19;20026;-89
2022/03/16 09:08:18;;;;;;;4.22;2.95;;;;;;;11.97;100.00;100084.78;7394165;19;20473;-89
2022/03/16 09:10:43;;;;;;;7.40;3.40;;;;;;;11.92;100.00;100088.22;7397538;19;20011;-89
2022/03/16 09:13:09;;;;;;;12.93;4.32;;;;;;;11.95;100.00;100081.66;7394845;19;20021;-88
2022/03/16 09:15:34;;;;;;;6.13;3.60;;;;;;;12.06;100.00;100092.28;7396177;19;20014;-87
2022/03/16 09:18:00;;;;;;;9.73;3.42;;;;;;;12.07;100.00;100094.59;7393486;19;20134;-88
2022/03/16 09:20:25;;;;;;;13.93;4.88;;;;;;;12.03;100.00;100094.03;7396189;19;20498;-87
2022/03/16 09:22:51;;;;;;;10.65;3.78;;;;;;;12.02;100.00;100097.28;7394705;19;20022;-88
2022/03/16 09:25:16;;;;;;;10.82;3.03;;;;;;;12.08;100.00;100098.16;7392780;19;20011;-87
2022/03/16 09:27:42;;;;;;;5.07;2.50;;;;;;;12.08;100.00;100096.13;7395593;19;20018;-87
2022/03/16 09:30:08;;;;;;;8.80;3.08;;;;;;;12.10;100.00;100099.22;7395433;19;20025;-87
2022/03/16 09:32:34;;;;;;;7.25;2.70;;;;;;;12.08;100.00;100107.28;7396540;19;20018;-86
2022/03/16 09:35:00;;;;;;;5.10;2.95;;;;;;;12.12;100.00;100105.09;7394042;19;20031;-86
2022/03/16 09:37:26;;;;;;;19.83;4.53;;;;;;;12.09;100.00;100108.06;7391000;19;20019;-85
2022/03/16 09:39:52;;;;;;;17.23;4.25;;;;;;;12.05;100.00;100116.63;7394678;19;20014;-85
2022/03/16 09:42:20;;;;;;;8.30;3.42;;;;;;;12.09;100.00;100103.25;7395156;19;20014;-85
2022/03/16 09:44:47;;;;;;;6.20;3.35;;;;;;;12.10;100.00;100098.44;7390201;19;20015;-85
2022/03/16 09:47:12;;;;;;;17.45;4.28;;;;;;;12.21;100.00;100104.25;7391523;19;20022;-85
2022/03/16 09:49:39;;;;;;;9.30;3.72;;;;;;;12.29;100.00;100113.00;7392569;19;20339;-85
2022/03/16 09:52:07;;;;;;;11.50;3.75;;;;;;;12.19;100.00;100107.50;7395948;19;20031;-85
2022/03/16 09:54:33;;;;;;;8.93;4.05;;;;;;;12.12;100.00;100113.47;7393024;19;20018;-85
2022/03/16 09:56:59;;;;;;;12.10;4.28;;;;;;;12.14;100.00;100113.78;7392328;19;20030;-85
2022/03/16 09:59:25;;;;;;;16.65;2.88;;;;;;;12.22;100.00;100116.94;7390837;19;20052;-86
2022/03/16 10:01:58;;;;;;;15.52;4.30;;;;;;;12.20;100.00;100119.44;7392632;19;20022;-85
2022/03/16 10:04:33;;;;;;;26.45;5.03;;;;;;;12.14;100.00;100116.56;7390014;19;20051;-86
2022/03/16 10:07:00;;;;;;;14.70;4.85;;;;;;;12.15;100.00;100112.50;7392915;19;20029;-86
2022/03/16 10:15:10;;;;;;;17.77;5.72;;;;;;;12.35;100.00;100097.09;7392497;19;20018;-86
2022/03/16 10:17:46;;;;;;;8.52;3.85;;;;;;;12.41;100.00;100095.94;7390801;19;20018;-82
2022/03/16 10:20:19;;;;;;;15.68;4.28;;;;;;;12.61;100.00;100087.66;7391975;19;20021;-82
2022/03/16 10:22:56;;;;;;;13.93;4.72;;;;;;;12.82;100.00;100080.09;7389458;19;20086;-89
2022/03/16 10:25:22;;;;;;;10.18;4.22;;;;;;;13.07;100.00;100073.13;7393453;19;20029;-90
2022/03/16 10:27:48;;;;;;;11.23;3.00;;;;;;;13.17;100.00;100071.72;7392271;19;20014;-89
2022/03/16 10:30:14;;;;;;;24.70;4.25;;;;;;;13.30;100.00;100064.53;7394266;19;20489;-89
2022/03/16 10:32:52;;;;;;;13.23;5.65;;;;;;;13.44;100.00;100062.94;7398792;19;20424;-90
2022/03/16 10:35:18;;;;;;;9.73;3.50;;;;;;;13.54;100.00;100067.09;7397372;19;20003;-89
2022/03/16 10:37:47;;;;;;;12.35;4.20;;;;;;;13.61;100.00;100059.06;7391181;19;20026;-88
2022/03/16 10:40:26;;;;;;;12.35;5.45;;;;;;;13.86;100.00;100059.59;7393037;19;20473;-90
2022/03/16 10:48:25;;;;;;;5.20;2.58;;;;;;;14.56;100.00;100054.41;7393661;19;20018;-91
2022/03/16 10:50:57;;;;;;;7.93;3.03;;;;;;;14.68;100.00;100042.00;7395435;19;20019;-89
2022/03/16 10:53:30;;;;;;;13.85;3.85;;;;;;;14.87;100.00;100046.72;7393706;19;20056;-91
2022/03/16 10:55:59;;;;;;;6.18;3.88;;;;;;;14.98;100.00;100041.19;7392042;19;20015;-90
2022/03/16 10:58:27;;;;;;;13.80;4.65;;;;;;;14.98;100.00;100063.63;7391564;19;20023;-91
2022/03/16 11:00:53;;;;;;;9.25;3.63;;;;;;;14.98;100.00;100052.41;7390528;19;20039;-91
2022/03/16 11:03:22;;;;;;;6.72;2.83;;;;;;;15.05;100.00;100046.31;7392016;19;20018;-91
2022/03/16 11:05:48;;;;;;;5.90;2.63;;;;;;;15.11;100.00;100061.16;7391409;19;20022;-91
2022/03/16 11:08:15;;;;;;;11.38;3.58;;;;;;;15.16;100.00;100057.59;7391939;19;20018;-92
2022/03/16 11:10:42;;;;;;;5.30;2.70;;;;;;;15.13;100.00;100064.22;7393854;19;20010;-90
2022/03/16 11:13:28;;;;;;;6.70;3.38;;;;;;;15.12;100.00;100073.91;7392066;19;20118;-91
2022/03/16 11:15:56;;;;;;;9.00;2.75;;;;;;;15.25;100.00;100067.06;7389833;19;20090;-91
2022/03/16 11:18:25;;;;;;;7.55;3.08;;;;;;;15.29;100.00;100059.94;7389500;19;20010;-91
2022/03/16 11:20:55;;;;;;;6.30;2.80;;;;;;;15.26;100.00;100043.38;7393864;19;20014;-91
2022/03/16 11:26:36;;;;;;;7.55;2.50;;;;;;;15.08;100.00;100045.31;7392531;19;20039;-92
2022/03/16 11:29:15;;;;;;;6.90;2.47;;;;;;;14.96;100.00;100049.34;7391529;19;20041;-92
2022/03/16 11:31:42;;;;;;;5.38;2.13;;;;;;;14.88;100.00;100047.47;7396658;19;20018;-92